createdAt,value
2023-02-13T00:01:26.090Z,6.60
2023-02-13T00:03:54.392Z,6.90
2023-02-13T00:06:24.184Z,6.60
2023-02-13T00:08:53.034Z,6.80
2023-02-13T00:11:22.012Z,7.50
2023-02-13T00:13:50.465Z,7.40
2023-02-13T00:16:18.552Z,7.60
2023-02-13T00:18:46.946Z,6.40
2023-02-13T00:21:15.313Z,6.40
2023-02-13T00:23:43.495Z,7.70
2023-02-13T00:26:14.637Z,7.50
2023-02-13T00:28:45.741Z,7.70
2023-02-13T00:31:19.520Z,8.00
2023-02-13T00:33:49.622Z,7.50
2023-02-13T00:36:20.651Z,8.00
2023-02-13T00:38:48.938Z,8.80
2023-02-13T00:41:17.739Z,9.90
2023-02-13T00:43:47.956Z,8.90
2023-02-13T00:46:17.738Z,8.80
2023-02-13T00:48:46.669Z,8.90
2023-02-13T00:51:14.953Z,8.70
2023-02-13T00:53:43.437Z,9.00
2023-02-13T00:56:12.228Z,9.80
2023-02-13T00:58:40.969Z,8.90
2023-02-13T01:01:09.405Z,8.70
2023-02-13T01:03:38.046Z,9.30
2023-02-13T01:06:07.349Z,9.40
2023-02-13T01:08:40.001Z,11.20
2023-02-13T01:11:09.072Z,8.40
2023-02-13T01:13:38.199Z,11.70
2023-02-13T01:16:07.296Z,6.90
2023-02-13T01:18:35.781Z,9.20
2023-02-13T01:21:06.921Z,8.90
2023-02-13T01:23:38.708Z,9.00
2023-02-13T01:26:09.462Z,8.40
2023-02-13T01:28:37.915Z,8.30
2023-02-13T01:31:06.502Z,8.00
2023-02-13T01:33:36.427Z,8.10
2023-02-13T01:36:14.411Z,8.40
2023-02-13T01:38:43.116Z,9.90
2023-02-13T01:41:12.015Z,8.80
2023-02-13T01:43:46.026Z,8.80
2023-02-13T01:48:46.701Z,10.10
2023-02-13T01:51:21.407Z,10.40
2023-02-13T01:54:02.899Z,9.00
2023-02-13T01:56:44.083Z,9.00
2023-02-13T01:59:20.540Z,9.80
2023-02-13T02:01:49.608Z,8.90
2023-02-13T02:04:28.379Z,8.80
2023-02-13T02:07:01.704Z,10.60
2023-02-13T02:09:37.715Z,9.60
2023-02-13T02:12:33.445Z,10.80
2023-02-13T02:15:03.755Z,11.70
2023-02-13T02:17:33.568Z,10.10
2023-02-13T02:20:17.506Z,11.00
2023-02-13T02:23:16.289Z,10.20
2023-02-13T02:26:09.437Z,10.00
2023-02-13T02:29:06.988Z,9.30
2023-02-13T02:31:37.992Z,9.80
2023-02-13T02:34:29.954Z,9.10
2023-02-13T02:37:20.751Z,9.70
2023-02-13T02:39:55.286Z,9.20
2023-02-13T02:42:43.101Z,9.60
2023-02-13T02:45:23.156Z,9.90
2023-02-13T02:48:18.450Z,9.90
2023-02-13T02:51:21.224Z,9.60
2023-02-13T02:54:27.870Z,10.00
2023-02-13T02:57:06.693Z,9.50
2023-02-13T02:59:56.259Z,10.50
2023-02-13T03:02:43.780Z,8.50
2023-02-13T03:05:46.448Z,9.20
2023-02-13T03:08:36.730Z,10.10
2023-02-13T03:11:32.439Z,9.20
2023-02-13T03:14:04.310Z,11.30
2023-02-13T03:16:51.416Z,11.30
2023-02-13T03:19:52.657Z,10.40
2023-02-13T03:22:35.977Z,12.50
2023-02-13T03:25:34.632Z,10.60
2023-02-13T03:28:43.867Z,8.90
2023-02-13T03:31:23.674Z,10.50
2023-02-13T03:34:06.111Z,10.40
2023-02-13T03:37:05.510Z,9.70
2023-02-13T03:39:59.892Z,10.30
2023-02-13T03:45:22.956Z,9.70
2023-02-13T03:47:57.168Z,10.10
2023-02-13T03:50:27.917Z,10.70
2023-02-13T03:53:07.454Z,11.10
2023-02-13T03:56:01.833Z,11.70
2023-02-13T03:58:56.712Z,12.80
2023-02-13T04:01:32.280Z,12.10
2023-02-13T04:04:19.482Z,11.10
2023-02-13T04:06:54.512Z,11.20
2023-02-13T04:09:29.048Z,11.70
2023-02-13T04:12:06.737Z,11.30
2023-02-13T04:14:40.989Z,11.30
2023-02-13T04:17:56.919Z,12.40
2023-02-13T04:20:28.685Z,10.90
2023-02-13T04:22:56.961Z,11.50
2023-02-13T04:25:25.453Z,10.80
2023-02-13T04:27:53.729Z,10.70
2023-02-13T04:30:22.114Z,11.00
2023-02-13T04:32:52.043Z,10.50
2023-02-13T04:35:20.522Z,11.30
2023-02-13T04:37:48.707Z,11.50
2023-02-13T04:40:18.567Z,11.40
2023-02-13T04:42:50.787Z,11.60
2023-02-13T04:45:19.098Z,12.30
2023-02-13T04:47:52.439Z,12.00
2023-02-13T04:50:22.006Z,16.00
2023-02-13T04:52:55.788Z,11.60
2023-02-13T04:55:25.832Z,11.60
2023-02-13T04:57:55.725Z,11.60
2023-02-13T05:00:26.789Z,16.70
2023-02-13T05:03:04.476Z,12.80
2023-02-13T05:05:32.966Z,13.10
2023-02-13T05:08:01.562Z,13.50
2023-02-13T05:10:30.544Z,11.50
2023-02-13T05:12:59.608Z,12.60
2023-02-13T05:15:27.864Z,12.20
2023-02-13T05:17:56.223Z,11.60
2023-02-13T05:20:24.905Z,11.80
2023-02-13T05:23:13.148Z,12.40
2023-02-13T05:25:42.243Z,12.40
2023-02-13T05:28:30.700Z,13.60
2023-02-13T05:30:59.441Z,14.20
2023-02-13T05:33:28.074Z,13.20
2023-02-13T05:35:56.457Z,12.50
2023-02-13T05:38:24.741Z,12.80
2023-02-13T05:40:53.027Z,12.70
2023-02-13T05:43:21.713Z,13.00
2023-02-13T05:45:49.995Z,12.80
2023-02-13T05:48:18.379Z,15.70
2023-02-13T05:50:48.092Z,12.50
2023-02-13T05:53:16.484Z,13.20
2023-02-13T05:55:44.863Z,13.10
2023-02-13T05:58:13.449Z,13.70
2023-02-13T06:00:41.938Z,12.40
2023-02-13T06:03:10.319Z,12.70
2023-02-13T06:05:38.702Z,12.20
2023-02-13T06:08:07.194Z,11.00
2023-02-13T06:10:35.472Z,12.90
2023-02-13T06:13:04.091Z,12.40
2023-02-13T06:15:32.551Z,11.80
2023-02-13T06:18:01.446Z,13.90
2023-02-13T06:20:29.826Z,13.60
2023-02-13T06:22:58.294Z,13.90
2023-02-13T06:25:26.698Z,12.60
2023-02-13T06:27:55.596Z,14.40
2023-02-13T06:30:24.003Z,13.40
2023-02-13T06:32:52.981Z,13.90
2023-02-13T06:35:21.569Z,14.20
2023-02-13T06:37:50.053Z,14.50
2023-02-13T06:40:19.031Z,12.70
2023-02-13T06:42:47.449Z,13.50
2023-02-13T06:45:15.924Z,13.80
2023-02-13T06:47:46.007Z,12.80
2023-02-13T06:50:17.008Z,13.70
2023-02-13T06:52:50.127Z,12.00
2023-02-13T06:55:20.905Z,12.80
2023-02-13T06:57:49.620Z,13.60
2023-02-13T07:00:19.046Z,12.00
2023-02-13T07:02:48.065Z,14.30
2023-02-13T07:05:17.951Z,13.50
2023-02-13T07:07:46.752Z,13.50
2023-02-13T07:10:15.121Z,14.30
2023-02-13T07:12:44.601Z,14.10
2023-02-13T07:15:14.174Z,14.80
2023-02-13T07:17:42.433Z,13.30
2023-02-13T07:20:11.296Z,13.90
2023-02-13T07:22:39.603Z,16.60
2023-02-13T07:25:08.499Z,14.90
2023-02-13T07:27:36.792Z,15.80
2023-02-13T07:30:06.243Z,14.60
2023-02-13T07:32:34.435Z,15.20
2023-02-13T07:35:03.320Z,16.40
2023-02-13T07:37:32.163Z,15.20
2023-02-13T07:40:00.961Z,14.20
2023-02-13T07:42:32.733Z,14.10
2023-02-13T07:45:01.614Z,14.90
2023-02-13T07:47:29.806Z,14.10
2023-02-13T07:49:58.084Z,14.70
2023-02-13T07:52:26.870Z,15.70
2023-02-13T07:54:55.064Z,14.40
2023-02-13T07:57:23.231Z,12.80
2023-02-13T07:59:51.619Z,14.20
2023-02-13T08:02:20.002Z,12.40
2023-02-13T08:04:48.597Z,12.70
2023-02-13T08:07:18.603Z,12.70
2023-02-13T08:10:06.132Z,12.80
2023-02-13T08:12:36.767Z,13.40
2023-02-13T08:15:13.815Z,12.20
2023-02-13T08:17:44.839Z,12.70
2023-02-13T08:20:13.185Z,12.30
2023-02-13T08:22:41.460Z,12.70
2023-02-13T08:25:09.845Z,12.00
2023-02-13T08:27:38.940Z,12.10
2023-02-13T08:30:09.138Z,11.90
2023-02-13T08:32:53.089Z,11.20
2023-02-13T08:35:27.020Z,14.50
2023-02-13T08:37:55.944Z,12.20
2023-02-13T08:40:25.490Z,13.50
2023-02-13T08:43:02.408Z,16.00
2023-02-13T08:45:31.676Z,12.20
2023-02-13T08:48:00.729Z,13.10
2023-02-13T08:50:28.989Z,12.60
2023-02-13T08:52:58.501Z,12.80
2023-02-13T08:55:28.585Z,14.00
2023-02-13T08:57:59.303Z,14.50
2023-02-13T09:00:28.270Z,15.30
2023-02-13T09:03:01.869Z,12.20
2023-02-13T09:08:03.010Z,13.90
2023-02-13T09:10:32.646Z,13.20
2023-02-13T09:13:04.139Z,13.90
2023-02-13T09:15:32.890Z,12.60
2023-02-13T09:18:01.479Z,13.20
2023-02-13T09:20:29.871Z,13.50
2023-02-13T09:22:58.356Z,12.70
2023-02-13T09:25:27.152Z,13.40
2023-02-13T09:27:55.652Z,14.00
2023-02-13T09:30:24.145Z,12.50
2023-02-13T09:32:54.788Z,12.70
2023-02-13T09:35:24.409Z,11.40
2023-02-13T09:37:52.653Z,11.30
2023-02-13T09:40:23.792Z,10.80
2023-02-13T09:42:53.819Z,12.90
2023-02-13T09:45:22.632Z,11.10
2023-02-13T09:47:51.205Z,14.20
2023-02-13T09:50:29.827Z,10.80
2023-02-13T09:52:59.962Z,12.10
2023-02-13T09:55:40.304Z,12.30
2023-02-13T09:58:16.462Z,13.00
2023-02-13T10:00:51.502Z,13.60
2023-02-13T10:03:29.092Z,13.80
2023-02-13T10:06:08.063Z,13.60
2023-02-13T10:08:54.942Z,11.20
2023-02-13T10:11:29.558Z,11.10
2023-02-13T10:14:39.818Z,11.00
2023-02-13T10:17:20.367Z,14.00
2023-02-13T10:19:57.335Z,11.00
2023-02-13T10:22:38.621Z,10.90
2023-02-13T10:25:14.982Z,11.60
2023-02-13T10:28:11.588Z,10.10
2023-02-13T10:30:50.710Z,9.90
2023-02-13T10:33:26.961Z,11.50
2023-02-13T10:36:18.412Z,10.20
2023-02-13T10:38:56.119Z,10.90
2023-02-13T10:41:50.901Z,8.30
2023-02-13T10:44:25.529Z,8.10
2023-02-13T10:47:29.725Z,9.30
2023-02-13T10:50:16.541Z,9.50
2023-02-13T10:52:57.605Z,10.40
2023-02-13T10:55:25.885Z,9.60
2023-02-13T10:58:59.359Z,11.60
2023-02-13T11:01:53.893Z,10.40
2023-02-13T11:04:22.747Z,10.30
2023-02-13T11:07:00.322Z,10.60
2023-02-13T11:09:31.062Z,10.30
2023-02-13T11:11:59.866Z,10.30
2023-02-13T11:14:28.755Z,9.70
2023-02-13T11:17:12.589Z,10.30
2023-02-13T11:19:53.917Z,8.40
2023-02-13T11:22:35.762Z,9.60
2023-02-13T11:25:08.856Z,8.70
2023-02-13T11:27:39.996Z,9.70
2023-02-13T11:30:31.509Z,9.00
2023-02-13T11:33:01.632Z,9.60
2023-02-13T11:35:33.404Z,8.60
2023-02-13T11:38:10.582Z,9.00
2023-02-13T11:40:39.327Z,9.30
2023-02-13T11:43:14.672Z,9.30
2023-02-13T11:45:43.713Z,10.40
2023-02-13T11:48:22.841Z,11.40
2023-02-13T11:50:53.895Z,9.80
2023-02-13T11:53:27.122Z,11.10
2023-02-13T11:56:11.973Z,11.10
2023-02-13T11:58:41.553Z,11.40
2023-02-13T12:01:21.934Z,11.90
2023-02-13T12:04:06.671Z,11.90
2023-02-13T12:06:39.958Z,13.50
2023-02-13T12:09:15.980Z,11.60
2023-02-13T12:11:51.378Z,12.00
2023-02-13T12:14:27.435Z,10.80
2023-02-13T12:17:05.743Z,13.10
2023-02-13T12:19:49.633Z,11.00
2023-02-13T12:22:33.816Z,11.40
2023-02-13T12:25:21.149Z,10.30
2023-02-13T12:28:19.242Z,13.00
2023-02-13T12:30:50.507Z,12.50
2023-02-13T12:33:21.912Z,11.20
2023-02-13T12:35:58.998Z,10.30
2023-02-13T12:38:47.462Z,9.80
2023-02-13T12:41:40.171Z,8.50
2023-02-13T12:44:16.028Z,9.90
2023-02-13T12:46:58.502Z,10.50
2023-02-13T12:49:44.832Z,10.60
2023-02-13T12:52:51.178Z,10.60
2023-02-13T12:55:37.674Z,10.40
2023-02-13T12:58:37.205Z,10.20
2023-02-13T13:01:43.723Z,11.00
2023-02-13T13:04:35.541Z,10.10
2023-02-13T13:07:22.858Z,10.90
2023-02-13T13:10:16.363Z,9.20
2023-02-13T13:12:56.882Z,10.70
2023-02-13T13:15:28.136Z,10.00
2023-02-13T13:17:56.515Z,11.10
2023-02-13T13:20:52.139Z,10.50
2023-02-13T13:23:30.695Z,10.20
2023-02-13T13:26:21.495Z,10.50
2023-02-13T13:28:53.555Z,11.20
2023-02-13T13:31:26.474Z,10.70
2023-02-13T13:34:01.123Z,11.20
2023-02-13T13:36:51.296Z,10.30
2023-02-13T13:39:26.914Z,11.70
2023-02-13T13:42:28.177Z,11.70
2023-02-13T13:44:56.770Z,11.80
2023-02-13T13:47:47.184Z,11.80
2023-02-13T13:50:24.756Z,11.30
2023-02-13T13:53:08.486Z,12.40
2023-02-13T13:56:05.961Z,12.20
2023-02-13T13:58:45.264Z,12.70
2023-02-13T14:01:26.790Z,12.10
2023-02-13T14:04:33.204Z,12.80
2023-02-13T14:07:01.793Z,11.70
2023-02-13T14:09:45.576Z,11.40
2023-02-13T14:12:47.171Z,11.90
2023-02-13T14:15:34.140Z,12.20
2023-02-13T14:18:26.196Z,11.10
2023-02-13T14:20:59.569Z,12.20
2023-02-13T14:23:34.069Z,12.20
2023-02-13T14:26:17.587Z,12.60
2023-02-13T14:28:49.008Z,13.60
2023-02-13T14:31:23.306Z,12.00
2023-02-13T14:34:24.453Z,12.10
2023-02-13T14:37:11.363Z,11.30
2023-02-13T14:39:42.353Z,15.00
2023-02-13T14:42:30.707Z,12.90
2023-02-13T14:45:01.953Z,14.10
2023-02-13T14:47:33.655Z,13.30
2023-02-13T14:50:05.020Z,15.30
2023-02-13T14:52:37.423Z,16.10
2023-02-13T14:55:17.259Z,15.60
2023-02-13T14:57:50.628Z,14.80
2023-02-13T15:00:32.032Z,15.70
2023-02-13T15:03:11.755Z,17.00
2023-02-13T15:05:40.410Z,17.00
2023-02-13T15:08:14.867Z,14.50
2023-02-13T15:10:49.601Z,13.80
2023-02-13T15:13:18.701Z,13.40
2023-02-13T15:16:00.746Z,14.70
2023-02-13T15:18:41.872Z,13.70
2023-02-13T15:21:16.503Z,13.50
2023-02-13T15:23:45.098Z,14.40
2023-02-13T15:26:23.836Z,15.10
2023-02-13T15:29:07.410Z,14.10
2023-02-13T15:31:39.700Z,16.40
2023-02-13T15:34:36.207Z,15.20
2023-02-13T15:37:04.718Z,14.60
2023-02-13T15:39:33.113Z,13.40
2023-02-13T15:42:03.744Z,17.40
2023-02-13T15:44:37.453Z,12.40
2023-02-13T15:47:26.815Z,15.00
2023-02-13T15:49:55.794Z,15.10
2023-02-13T15:52:31.759Z,16.90
2023-02-13T15:55:00.249Z,16.20
2023-02-13T15:57:29.376Z,16.80
2023-02-13T16:00:01.052Z,15.20
2023-02-13T16:02:37.719Z,17.60
2023-02-13T16:05:06.922Z,15.50
2023-02-13T16:07:57.554Z,16.20
2023-02-13T16:10:32.210Z,16.10
2023-02-13T16:13:06.644Z,16.50
2023-02-13T16:15:37.437Z,16.80
2023-02-13T16:18:21.211Z,16.40
2023-02-13T16:20:54.607Z,17.30
2023-02-13T16:23:23.090Z,17.30
2023-02-13T16:25:51.586Z,16.00
2023-02-13T16:28:24.054Z,17.30
2023-02-13T16:31:00.324Z,20.50
2023-02-13T16:33:32.034Z,16.70
2023-02-13T16:36:18.376Z,16.50
2023-02-13T16:38:50.432Z,18.30
2023-02-13T16:41:31.208Z,15.90
2023-02-13T16:44:02.098Z,16.60
2023-02-13T16:46:41.702Z,14.30
2023-02-13T16:49:10.388Z,17.80
2023-02-13T16:51:41.434Z,18.20
2023-02-13T16:54:27.745Z,16.50
2023-02-13T16:57:01.022Z,17.50
2023-02-13T16:59:35.243Z,17.60
2023-02-13T17:02:12.628Z,18.20
2023-02-13T17:04:44.253Z,17.60
2023-02-13T17:07:21.878Z,20.10
2023-02-13T17:10:02.199Z,18.10
2023-02-13T17:12:35.840Z,18.80
2023-02-13T17:15:05.778Z,18.50
2023-02-13T17:17:33.956Z,19.60
2023-02-13T17:20:04.475Z,19.60
2023-02-13T17:22:39.478Z,19.50
2023-02-13T17:25:15.462Z,18.30
2023-02-13T17:27:43.746Z,18.00
2023-02-13T17:30:24.142Z,17.90
2023-02-13T17:32:59.739Z,16.60
2023-02-13T17:35:28.144Z,15.90
2023-02-13T17:37:56.323Z,16.80
2023-02-13T17:40:27.636Z,13.20
2023-02-13T17:42:57.140Z,7.00
2023-02-13T17:45:28.841Z,7.00
2023-02-13T17:48:00.850Z,5.90
2023-02-13T17:50:31.486Z,5.40
2023-02-13T17:53:19.677Z,5.90
2023-02-13T17:55:48.003Z,4.50
2023-02-13T17:58:16.241Z,5.60
2023-02-13T18:00:44.827Z,4.70
2023-02-13T18:03:13.315Z,4.70
2023-02-13T18:05:42.110Z,5.90
2023-02-13T18:08:10.606Z,4.70
2023-02-13T18:10:39.718Z,4.60
2023-02-13T18:13:08.595Z,5.60
2023-02-13T18:15:42.529Z,4.80
2023-02-13T18:20:40.087Z,4.60
2023-02-13T18:23:09.398Z,5.00
2023-02-13T18:25:37.577Z,4.60
2023-02-13T18:28:06.270Z,4.30
2023-02-13T18:30:34.657Z,4.40
2023-02-13T18:33:05.211Z,4.80
2023-02-13T18:35:35.014Z,4.30
2023-02-13T18:38:03.593Z,4.40
2023-02-13T18:40:31.881Z,4.50
2023-02-13T18:43:01.076Z,4.80
2023-02-13T18:45:29.356Z,4.40
2023-02-13T18:47:57.638Z,6.90
2023-02-13T18:50:26.333Z,7.20
2023-02-13T18:52:54.920Z,7.60
2023-02-13T18:55:23.101Z,8.10
2023-02-13T18:57:54.158Z,7.50
2023-02-13T19:00:23.664Z,7.80
2023-02-13T19:02:53.073Z,6.80
2023-02-13T19:05:21.448Z,6.50
2023-02-13T19:07:49.633Z,6.30
2023-02-13T19:10:18.113Z,7.00
2023-02-13T19:12:46.810Z,7.20
2023-02-13T19:15:16.642Z,6.40
2023-02-13T19:17:46.037Z,6.20
2023-02-13T19:20:16.665Z,5.40
2023-02-13T19:22:45.361Z,5.70
2023-02-13T19:25:13.743Z,6.00
2023-02-13T19:27:42.033Z,7.70
2023-02-13T19:30:12.619Z,7.10
2023-02-13T19:32:41.663Z,8.40
2023-02-13T19:35:09.957Z,10.00
2023-02-13T19:37:43.849Z,10.30
2023-02-13T19:40:14.215Z,12.10
2023-02-13T19:42:42.893Z,12.10
2023-02-13T19:45:11.649Z,11.70
2023-02-13T19:47:40.054Z,14.00
2023-02-13T19:50:09.879Z,12.90
2023-02-13T19:52:38.663Z,12.70
2023-02-13T19:55:07.231Z,13.60
2023-02-13T19:57:36.089Z,14.50
2023-02-13T20:00:06.180Z,14.00
2023-02-13T20:02:40.442Z,14.70
2023-02-13T20:05:10.125Z,16.50
2023-02-13T20:07:38.398Z,15.30
2023-02-13T20:10:09.806Z,15.10
2023-02-13T20:12:39.326Z,14.20
2023-02-13T20:15:08.478Z,14.60
2023-02-13T20:17:38.067Z,13.80
2023-02-13T20:20:07.333Z,14.30
2023-02-13T20:22:35.564Z,13.10
2023-02-13T20:25:05.137Z,13.70
2023-02-13T20:30:11.462Z,13.70
2023-02-13T20:32:40.056Z,12.00
2023-02-13T20:35:08.761Z,13.80
2023-02-13T20:37:37.429Z,12.60
2023-02-13T20:40:06.260Z,11.50
2023-02-13T20:42:35.210Z,14.60
2023-02-13T20:45:03.698Z,14.20
2023-02-13T20:47:32.293Z,16.80
2023-02-13T20:50:00.873Z,14.00
2023-02-13T20:52:29.156Z,14.80
2023-02-13T20:54:58.661Z,14.90
2023-02-13T20:57:27.868Z,15.10
2023-02-13T20:59:56.463Z,16.40
2023-02-13T21:02:25.574Z,14.90
2023-02-13T21:04:53.841Z,15.30
2023-02-13T21:07:22.230Z,15.70
2023-02-13T21:09:50.514Z,15.30
2023-02-13T21:12:18.930Z,16.00
2023-02-13T21:14:47.578Z,15.00
2023-02-13T21:17:15.757Z,15.60
2023-02-13T21:19:44.041Z,16.20
2023-02-13T21:22:12.576Z,16.40
2023-02-13T21:24:42.965Z,17.80
2023-02-13T21:27:11.870Z,14.60
2023-02-13T21:29:40.236Z,15.70
2023-02-13T21:32:08.675Z,15.20
2023-02-13T21:34:36.913Z,15.90
2023-02-13T21:37:05.185Z,15.60
2023-02-13T21:39:33.578Z,14.60
2023-02-13T21:42:02.133Z,14.80
2023-02-13T21:44:30.557Z,14.20
2023-02-13T21:46:58.775Z,15.90
2023-02-13T21:49:27.425Z,15.20
2023-02-13T21:51:55.707Z,15.60
2023-02-13T21:54:24.123Z,14.40
2023-02-13T21:56:52.382Z,14.80
2023-02-13T21:59:23.523Z,15.40
2023-02-13T22:01:54.628Z,14.70
2023-02-13T22:04:23.598Z,14.20
2023-02-13T22:06:52.579Z,14.10
2023-02-13T22:09:22.537Z,14.10
2023-02-13T22:11:53.649Z,16.50
2023-02-13T22:14:22.635Z,15.20
2023-02-13T22:16:51.997Z,13.20
2023-02-13T22:19:20.546Z,13.40
2023-02-13T22:21:49.124Z,13.60
2023-02-13T22:24:17.608Z,13.20
2023-02-13T22:26:46.090Z,13.40
2023-02-13T22:29:17.780Z,14.80
2023-02-13T22:31:46.756Z,14.30
2023-02-13T22:34:15.416Z,14.80
2023-02-13T22:36:43.727Z,14.60
2023-02-13T22:39:14.263Z,15.00
2023-02-13T22:41:45.844Z,14.40
2023-02-13T22:44:14.314Z,14.50
2023-02-13T22:46:43.055Z,14.40
2023-02-13T22:49:11.889Z,15.10
2023-02-13T22:51:40.367Z,14.50
2023-02-13T22:54:10.597Z,14.40
2023-02-13T22:56:38.771Z,13.90
2023-02-13T22:59:07.161Z,12.50
2023-02-13T23:01:35.436Z,14.80
2023-02-13T23:04:04.175Z,15.50
2023-02-13T23:06:32.818Z,14.30
2023-02-13T23:09:01.008Z,14.50
2023-02-13T23:11:48.008Z,13.90
2023-02-13T23:14:16.503Z,13.50
2023-02-13T23:17:03.295Z,15.30
2023-02-13T23:19:32.203Z,14.10
2023-02-13T23:22:00.580Z,14.20
2023-02-13T23:24:30.360Z,13.90
2023-02-13T23:26:59.916Z,13.80
2023-02-13T23:29:28.296Z,14.10
2023-02-13T23:31:56.717Z,14.50
2023-02-13T23:34:25.365Z,12.60
2023-02-13T23:36:53.762Z,14.60
2023-02-13T23:39:21.929Z,14.00
2023-02-13T23:41:50.621Z,13.00
2023-02-13T23:44:19.528Z,13.10
2023-02-13T23:46:47.966Z,12.00
2023-02-13T23:49:16.488Z,13.90
2023-02-13T23:51:45.180Z,13.60
2023-02-13T23:54:24.033Z,12.80
2023-02-13T23:56:54.441Z,13.90
2023-02-13T23:59:24.256Z,13.30
